sensor_id;sensor_type;location;lat;lon;timestamp;pressure;altitude;pressure_sealevel;temperature;humidity
13800;BME280;6971;50.028;9.258;2023-06-05T00:02:25;99636.41;;;15.25;40.43
13800;BME280;6971;50.028;9.258;2023-06-05T00:07:26;99628.09;;;15.43;39.70
13800;BME280;6971;50.028;9.258;2023-06-05T00:12:26;99626.88;;;15.36;40.30
13800;BME280;6971;50.028;9.258;2023-06-05T00:17:27;99632.34;;;15.46;40.08
13800;BME280;6971;50.028;9.258;2023-06-05T00:22:28;99632.84;;;15.26;41.22
13800;BME280;6971;50.028;9.258;2023-06-05T00:27:29;99632.19;;;15.10;40.29
13800;BME280;6971;50.028;9.258;2023-06-05T00:32:30;99626.56;;;15.27;40.75
13800;BME280;6971;50.028;9.258;2023-06-05T00:37:30;99623.81;;;15.03;40.94
13800;BME280;6971;50.028;9.258;2023-06-05T00:42:31;99613.75;;;14.95;41.27
13800;BME280;6971;50.028;9.258;2023-06-05T00:47:32;99610.88;;;14.85;41.86
13800;BME280;6971;50.028;9.258;2023-06-05T00:52:35;99619.22;;;14.66;42.65
13800;BME280;6971;50.028;9.258;2023-06-05T00:57:36;99610.53;;;14.64;42.93
13800;BME280;6971;50.028;9.258;2023-06-05T01:02:39;99619.84;;;14.57;42.80
13800;BME280;6971;50.028;9.258;2023-06-05T01:07:40;99613.91;;;14.53;44.30
13800;BME280;6971;50.028;9.258;2023-06-05T01:12:51;99619.09;;;14.55;43.45
13800;BME280;6971;50.028;9.258;2023-06-05T01:17:57;99615.22;;;14.33;44.92
13800;BME280;6971;50.028;9.258;2023-06-05T01:22:57;99611.75;;;14.05;45.35
13800;BME280;6971;50.028;9.258;2023-06-05T01:28:12;99615.91;;;14.09;45.56
13800;BME280;6971;50.028;9.258;2023-06-05T01:33:31;99617.19;;;13.76;46.31
13800;BME280;6971;50.028;9.258;2023-06-05T01:38:34;99613.94;;;13.70;46.78
13800;BME280;6971;50.028;9.258;2023-06-05T01:43:35;99625.91;;;13.34;48.11
13800;BME280;6971;50.028;9.258;2023-06-05T01:48:36;99610.22;;;13.31;47.76
13800;BME280;6971;50.028;9.258;2023-06-05T01:53:38;99607.97;;;13.10;49.28
13800;BME280;6971;50.028;9.258;2023-06-05T01:58:39;99610.78;;;12.92;51.10
13800;BME280;6971;50.028;9.258;2023-06-05T02:03:41;99609.53;;;12.84;51.26
13800;BME280;6971;50.028;9.258;2023-06-05T02:08:47;99601.66;;;12.53;54.99
13800;BME280;6971;50.028;9.258;2023-06-05T02:13:47;99605.63;;;12.46;56.46
13800;BME280;6971;50.028;9.258;2023-06-05T02:18:49;99601.78;;;12.21;57.65
13800;BME280;6971;50.028;9.258;2023-06-05T02:23:50;99613.97;;;11.91;58.71
13800;BME280;6971;50.028;9.258;2023-06-05T02:28:51;99603.13;;;11.65;59.78
13800;BME280;6971;50.028;9.258;2023-06-05T02:33:54;99603.94;;;11.66;59.21
13800;BME280;6971;50.028;9.258;2023-06-05T02:38:55;99597.41;;;11.41;60.84
13800;BME280;6971;50.028;9.258;2023-06-05T02:43:56;99588.34;;;11.29;60.50
13800;BME280;6971;50.028;9.258;2023-06-05T02:48:56;99595.63;;;11.07;63.80
13800;BME280;6971;50.028;9.258;2023-06-05T02:53:57;99592.06;;;11.08;63.37
13800;BME280;6971;50.028;9.258;2023-06-05T02:58:57;99600.50;;;11.15;63.16
13800;BME280;6971;50.028;9.258;2023-06-05T03:03:58;99594.63;;;11.10;62.78
13800;BME280;6971;50.028;9.258;2023-06-05T03:08:59;99589.97;;;10.64;65.36
13800;BME280;6971;50.028;9.258;2023-06-05T03:14:00;99588.28;;;10.63;65.48
13800;BME280;6971;50.028;9.258;2023-06-05T03:19:00;99586.22;;;10.52;65.41
13800;BME280;6971;50.028;9.258;2023-06-05T03:24:01;99585.09;;;10.21;67.02
13800;BME280;6971;50.028;9.258;2023-06-05T03:29:02;99586.31;;;10.13;67.55
13800;BME280;6971;50.028;9.258;2023-06-05T03:34:02;99582.84;;;9.95;68.59
13800;BME280;6971;50.028;9.258;2023-06-05T03:39:03;99588.31;;;9.90;69.08
13800;BME280;6971;50.028;9.258;2023-06-05T03:44:04;99597.97;;;9.72;70.61
13800;BME280;6971;50.028;9.258;2023-06-05T03:49:05;99608.69;;;9.68;70.13
13800;BME280;6971;50.028;9.258;2023-06-05T03:54:09;99606.31;;;9.63;71.35
13800;BME280;6971;50.028;9.258;2023-06-05T03:59:09;99598.13;;;9.50;72.06
13800;BME280;6971;50.028;9.258;2023-06-05T04:04:16;99608.56;;;9.51;73.83
13800;BME280;6971;50.028;9.258;2023-06-05T04:09:17;99604.94;;;9.54;73.99
13800;BME280;6971;50.028;9.258;2023-06-05T04:14:17;99609.06;;;9.60;74.73
13800;BME280;6971;50.028;9.258;2023-06-05T04:19:18;99604.50;;;9.63;76.02
13800;BME280;6971;50.028;9.258;2023-06-05T04:24:18;99605.66;;;9.38;77.68
13800;BME280;6971;50.028;9.258;2023-06-05T04:29:19;99610.41;;;9.49;78.11
13800;BME280;6971;50.028;9.258;2023-06-05T04:34:19;99616.47;;;9.51;79.70
13800;BME280;6971;50.028;9.258;2023-06-05T04:39:19;99611.69;;;9.40;81.36
13800;BME280;6971;50.028;9.258;2023-06-05T04:44:20;99613.53;;;9.58;81.14
13800;BME280;6971;50.028;9.258;2023-06-05T04:49:22;99613.19;;;9.65;81.93
13800;BME280;6971;50.028;9.258;2023-06-05T04:54:23;99608.44;;;9.91;80.73
13800;BME280;6971;50.028;9.258;2023-06-05T04:59:23;99608.94;;;9.63;83.13
13800;BME280;6971;50.028;9.258;2023-06-05T05:04:23;99605.53;;;9.98;81.13
13800;BME280;6971;50.028;9.258;2023-06-05T05:09:24;99605.19;;;9.86;82.01
13800;BME280;6971;50.028;9.258;2023-06-05T05:14:25;99616.28;;;10.11;82.22
13800;BME280;6971;50.028;9.258;2023-06-05T05:19:28;99610.72;;;9.99;85.50
13800;BME280;6971;50.028;9.258;2023-06-05T05:24:28;99625.47;;;10.21;85.27
13800;BME280;6971;50.028;9.258;2023-06-05T05:29:29;99621.66;;;10.27;85.63
13800;BME280;6971;50.028;9.258;2023-06-05T05:34:29;99619.28;;;10.40;87.56
13800;BME280;6971;50.028;9.258;2023-06-05T05:39:30;99612.63;;;10.50;87.63
13800;BME280;6971;50.028;9.258;2023-06-05T05:44:30;99620.22;;;10.74;86.66
13800;BME280;6971;50.028;9.258;2023-06-05T05:49:30;99621.63;;;10.97;84.33
13800;BME280;6971;50.028;9.258;2023-06-05T05:54:31;99625.78;;;11.19;84.42
13800;BME280;6971;50.028;9.258;2023-06-05T05:59:31;99625.91;;;11.34;84.39
13800;BME280;6971;50.028;9.258;2023-06-05T06:04:31;99630.84;;;11.56;84.36
13800;BME280;6971;50.028;9.258;2023-06-05T06:09:32;99628.47;;;11.68;85.37
13800;BME280;6971;50.028;9.258;2023-06-05T06:14:33;99627.97;;;12.09;79.20
13800;BME280;6971;50.028;9.258;2023-06-05T06:19:34;99621.81;;;12.70;74.79
13800;BME280;6971;50.028;9.258;2023-06-05T06:24:34;99621.75;;;13.01;73.31
13800;BME280;6971;50.028;9.258;2023-06-05T06:29:34;99630.44;;;13.32;70.24
13800;BME280;6971;50.028;9.258;2023-06-05T06:34:35;99631.78;;;13.81;63.79
13800;BME280;6971;50.028;9.258;2023-06-05T06:39:35;99627.47;;;14.08;62.99
13800;BME280;6971;50.028;9.258;2023-06-05T06:44:36;99636.44;;;14.33;62.98
13800;BME280;6971;50.028;9.258;2023-06-05T06:49:37;99642.34;;;14.64;59.98
13800;BME280;6971;50.028;9.258;2023-06-05T06:54:38;99638.16;;;15.26;56.64
13800;BME280;6971;50.028;9.258;2023-06-05T06:59:38;99637.72;;;16.08;50.90
13800;BME280;6971;50.028;9.258;2023-06-05T07:04:42;99640.97;;;16.36;52.86
13800;BME280;6971;50.028;9.258;2023-06-05T07:09:45;99633.81;;;16.72;49.76
13800;BME280;6971;50.028;9.258;2023-06-05T07:14:46;99626.66;;;17.08;49.91
13800;BME280;6971;50.028;9.258;2023-06-05T07:19:46;99639.19;;;17.75;46.16
13800;BME280;6971;50.028;9.258;2023-06-05T07:24:46;99641.13;;;17.73;46.69
13800;BME280;6971;50.028;9.258;2023-06-05T07:29:48;99635.53;;;18.53;43.51
13800;BME280;6971;50.028;9.258;2023-06-05T07:34:49;99632.94;;;18.63;42.41
13800;BME280;6971;50.028;9.258;2023-06-05T07:39:49;99635.09;;;18.90;43.15
13800;BME280;6971;50.028;9.258;2023-06-05T07:44:51;99626.75;;;19.05;42.39
13800;BME280;6971;50.028;9.258;2023-06-05T07:49:59;99629.41;;;20.76;38.09
13800;BME280;6971;50.028;9.258;2023-06-05T07:54:59;99640.72;;;22.20;34.53
13800;BME280;6971;50.028;9.258;2023-06-05T08:00:00;99653.38;;;23.44;32.36
13800;BME280;6971;50.028;9.258;2023-06-05T08:05:00;99647.63;;;23.90;30.87
13800;BME280;6971;50.028;9.258;2023-06-05T08:10:01;99657.22;;;23.93;30.57
13800;BME280;6971;50.028;9.258;2023-06-05T08:15:01;99649.22;;;24.68;29.07
13800;BME280;6971;50.028;9.258;2023-06-05T08:20:02;99650.56;;;24.88;28.40
13800;BME280;6971;50.028;9.258;2023-06-05T08:25:06;99648.22;;;24.52;29.10
13800;BME280;6971;50.028;9.258;2023-06-05T08:30:07;99653.81;;;25.32;28.71
13800;BME280;6971;50.028;9.258;2023-06-05T08:35:08;99651.19;;;25.55;27.15
13800;BME280;6971;50.028;9.258;2023-06-05T08:40:09;99645.47;;;25.90;27.32
13800;BME280;6971;50.028;9.258;2023-06-05T08:45:11;99650.22;;;25.88;26.91
13800;BME280;6971;50.028;9.258;2023-06-05T08:50:11;99652.19;;;25.94;26.38
13800;BME280;6971;50.028;9.258;2023-06-05T08:55:12;99651.94;;;26.36;26.03
13800;BME280;6971;50.028;9.258;2023-06-05T09:00:12;99653.97;;;26.72;25.27
13800;BME280;6971;50.028;9.258;2023-06-05T09:05:15;99644.84;;;26.74;26.15
13800;BME280;6971;50.028;9.258;2023-06-05T09:10:22;99649.91;;;26.77;25.83
13800;BME280;6971;50.028;9.258;2023-06-05T09:15:28;99645.91;;;26.02;25.40
13800;BME280;6971;50.028;9.258;2023-06-05T09:20:29;99644.09;;;26.65;25.12
13800;BME280;6971;50.028;9.258;2023-06-05T09:25:46;99649.03;;;27.82;24.46
13800;BME280;6971;50.028;9.258;2023-06-05T09:30:55;99644.81;;;27.42;24.94
13800;BME280;6971;50.028;9.258;2023-06-05T09:36:10;99629.63;;;26.96;25.23
13800;BME280;6971;50.028;9.258;2023-06-05T09:41:13;99624.66;;;27.45;23.52
13800;BME280;6971;50.028;9.258;2023-06-05T09:46:20;99621.94;;;27.45;23.65
13800;BME280;6971;50.028;9.258;2023-06-05T09:51:20;99626.44;;;27.07;23.58
13800;BME280;6971;50.028;9.258;2023-06-05T09:56:21;99621.25;;;27.58;22.87
13800;BME280;6971;50.028;9.258;2023-06-05T10:01:25;99621.41;;;28.08;23.87
13800;BME280;6971;50.028;9.258;2023-06-05T10:06:28;99618.75;;;27.93;23.50
13800;BME280;6971;50.028;9.258;2023-06-05T10:11:29;99611.22;;;27.52;24.11
13800;BME280;6971;50.028;9.258;2023-06-05T10:16:30;99608.06;;;28.07;24.20
13800;BME280;6971;50.028;9.258;2023-06-05T10:21:32;99601.34;;;28.02;24.08
13800;BME280;6971;50.028;9.258;2023-06-05T10:32:14;99600.25;;;28.19;23.81
13800;BME280;6971;50.028;9.258;2023-06-05T10:42:28;99600.88;;;28.93;21.91
13800;BME280;6971;50.028;9.258;2023-06-05T10:52:35;99584.47;;;28.44;22.31
13800;BME280;6971;50.028;9.258;2023-06-05T11:03:01;99589.50;;;29.18;22.50
13800;BME280;6971;50.028;9.258;2023-06-05T11:08:17;99588.78;;;28.96;22.05
13800;BME280;6971;50.028;9.258;2023-06-05T11:13:18;99584.25;;;29.10;22.42
13800;BME280;6971;50.028;9.258;2023-06-05T11:18:34;99579.41;;;28.98;21.48
13800;BME280;6971;50.028;9.258;2023-06-05T11:23:34;99565.84;;;27.54;23.67
13800;BME280;6971;50.028;9.258;2023-06-05T11:28:39;99559.56;;;28.12;23.06
13800;BME280;6971;50.028;9.258;2023-06-05T11:33:39;99567.09;;;28.38;22.93
13800;BME280;6971;50.028;9.258;2023-06-05T11:38:52;99555.56;;;27.64;23.55
13800;BME280;6971;50.028;9.258;2023-06-05T11:43:53;99544.91;;;28.28;22.75
13800;BME280;6971;50.028;9.258;2023-06-05T11:48:53;99546.25;;;28.39;23.82
13800;BME280;6971;50.028;9.258;2023-06-05T11:53:54;99542.69;;;28.32;22.94
13800;BME280;6971;50.028;9.258;2023-06-05T11:58:56;99546.25;;;29.10;21.30
13800;BME280;6971;50.028;9.258;2023-06-05T12:04:15;99528.47;;;28.30;21.78
13800;BME280;6971;50.028;9.258;2023-06-05T12:09:15;99522.00;;;28.31;22.84
13800;BME280;6971;50.028;9.258;2023-06-05T12:14:30;99527.31;;;29.23;22.38
13800;BME280;6971;50.028;9.258;2023-06-05T12:19:31;99517.88;;;28.35;22.45
13800;BME280;6971;50.028;9.258;2023-06-05T12:24:31;99515.28;;;29.46;21.02
13800;BME280;6971;50.028;9.258;2023-06-05T12:29:37;99508.38;;;29.43;20.18
13800;BME280;6971;50.028;9.258;2023-06-05T12:34:44;99506.34;;;28.90;21.07
13800;BME280;6971;50.028;9.258;2023-06-05T12:39:46;99501.66;;;28.41;22.54
13800;BME280;6971;50.028;9.258;2023-06-05T12:44:47;99495.44;;;27.91;22.24
13800;BME280;6971;50.028;9.258;2023-06-05T12:49:47;99487.06;;;28.36;22.67
13800;BME280;6971;50.028;9.258;2023-06-05T12:54:47;99483.31;;;28.37;23.25
13800;BME280;6971;50.028;9.258;2023-06-05T12:59:48;99480.28;;;27.31;23.43
13800;BME280;6971;50.028;9.258;2023-06-05T13:04:48;99463.06;;;27.60;22.78
13800;BME280;6971;50.028;9.258;2023-06-05T13:09:48;99473.78;;;27.10;24.14
13800;BME280;6971;50.028;9.258;2023-06-05T13:14:52;99465.94;;;25.94;26.22
13800;BME280;6971;50.028;9.258;2023-06-05T13:19:53;99461.94;;;26.05;27.00
13800;BME280;6971;50.028;9.258;2023-06-05T13:24:53;99471.34;;;25.94;27.47
13800;BME280;6971;50.028;9.258;2023-06-05T13:29:53;99452.47;;;26.10;26.19
13800;BME280;6971;50.028;9.258;2023-06-05T13:34:56;99443.81;;;26.75;24.48
13800;BME280;6971;50.028;9.258;2023-06-05T13:39:57;99441.56;;;27.74;23.96
13800;BME280;6971;50.028;9.258;2023-06-05T13:44:57;99444.53;;;27.79;22.93
13800;BME280;6971;50.028;9.258;2023-06-05T13:49:58;99443.78;;;27.05;25.02
13800;BME280;6971;50.028;9.258;2023-06-05T13:54:58;99433.25;;;26.58;25.12
13800;BME280;6971;50.028;9.258;2023-06-05T13:59:58;99429.97;;;26.32;28.11
13800;BME280;6971;50.028;9.258;2023-06-05T14:04:59;99430.88;;;25.56;28.62
13800;BME280;6971;50.028;9.258;2023-06-05T14:09:59;99431.53;;;26.12;28.08
13800;BME280;6971;50.028;9.258;2023-06-05T14:15:00;99424.09;;;26.59;27.59
13800;BME280;6971;50.028;9.258;2023-06-05T14:20:00;99423.22;;;27.26;27.39
13800;BME280;6971;50.028;9.258;2023-06-05T14:25:00;99420.38;;;26.30;28.74
13800;BME280;6971;50.028;9.258;2023-06-05T14:30:02;99413.47;;;26.12;28.34
13800;BME280;6971;50.028;9.258;2023-06-05T14:35:02;99405.09;;;27.04;27.75
13800;BME280;6971;50.028;9.258;2023-06-05T14:40:03;99409.31;;;27.07;26.82
13800;BME280;6971;50.028;9.258;2023-06-05T14:45:05;99399.25;;;27.01;25.94
13800;BME280;6971;50.028;9.258;2023-06-05T14:50:06;99410.44;;;27.19;25.74
13800;BME280;6971;50.028;9.258;2023-06-05T14:55:07;99408.28;;;26.93;25.45
13800;BME280;6971;50.028;9.258;2023-06-05T15:00:08;99399.63;;;26.45;26.43
13800;BME280;6971;50.028;9.258;2023-06-05T15:05:09;99401.78;;;26.87;26.19
13800;BME280;6971;50.028;9.258;2023-06-05T15:10:10;99399.63;;;26.97;25.37
13800;BME280;6971;50.028;9.258;2023-06-05T15:15:12;99410.94;;;26.71;25.69
13800;BME280;6971;50.028;9.258;2023-06-05T15:20:13;99398.47;;;26.70;25.28
13800;BME280;6971;50.028;9.258;2023-06-05T15:25:13;99383.97;;;26.41;25.53
13800;BME280;6971;50.028;9.258;2023-06-05T15:30:14;99384.78;;;26.11;25.60
13800;BME280;6971;50.028;9.258;2023-06-05T15:35:14;99384.81;;;26.26;27.02
13800;BME280;6971;50.028;9.258;2023-06-05T15:40:14;99383.78;;;26.42;26.98
13800;BME280;6971;50.028;9.258;2023-06-05T15:45:15;99391.78;;;26.51;26.88
13800;BME280;6971;50.028;9.258;2023-06-05T15:50:15;99379.56;;;26.25;26.61
13800;BME280;6971;50.028;9.258;2023-06-05T15:55:16;99392.63;;;26.51;26.81
13800;BME280;6971;50.028;9.258;2023-06-05T16:00:17;99390.50;;;26.31;26.17
13800;BME280;6971;50.028;9.258;2023-06-05T16:05:18;99384.34;;;26.23;26.69
13800;BME280;6971;50.028;9.258;2023-06-05T16:10:19;99369.69;;;26.02;27.08
13800;BME280;6971;50.028;9.258;2023-06-05T16:15:20;99370.06;;;26.14;27.49
13800;BME280;6971;50.028;9.258;2023-06-05T16:20:20;99370.72;;;25.86;27.82
13800;BME280;6971;50.028;9.258;2023-06-05T16:25:20;99369.44;;;25.97;27.94
13800;BME280;6971;50.028;9.258;2023-06-05T16:30:21;99362.25;;;25.74;28.35
13800;BME280;6971;50.028;9.258;2023-06-05T16:35:21;99364.72;;;25.75;28.01
13800;BME280;6971;50.028;9.258;2023-06-05T16:40:21;99357.13;;;25.79;28.25
13800;BME280;6971;50.028;9.258;2023-06-05T16:45:22;99366.59;;;25.36;28.63
13800;BME280;6971;50.028;9.258;2023-06-05T16:50:22;99362.38;;;25.34;29.05
13800;BME280;6971;50.028;9.258;2023-06-05T16:55:22;99367.59;;;25.35;29.32
13800;BME280;6971;50.028;9.258;2023-06-05T17:00:23;99359.22;;;25.30;29.43
13800;BME280;6971;50.028;9.258;2023-06-05T17:05:23;99357.84;;;25.11;29.16
13800;BME280;6971;50.028;9.258;2023-06-05T17:10:24;99363.06;;;25.12;29.82
13800;BME280;6971;50.028;9.258;2023-06-05T17:15:25;99369.47;;;24.88;30.05
13800;BME280;6971;50.028;9.258;2023-06-05T17:20:26;99359.88;;;25.09;30.32
13800;BME280;6971;50.028;9.258;2023-06-05T17:25:26;99363.28;;;24.71;29.81
13800;BME280;6971;50.028;9.258;2023-06-05T17:30:26;99366.88;;;24.63;30.25
13800;BME280;6971;50.028;9.258;2023-06-05T17:35:27;99362.75;;;24.44;30.18
13800;BME280;6971;50.028;9.258;2023-06-05T17:40:27;99362.47;;;24.30;30.71
13800;BME280;6971;50.028;9.258;2023-06-05T17:45:27;99370.34;;;24.40;31.26
13800;BME280;6971;50.028;9.258;2023-06-05T17:50:28;99366.91;;;24.15;31.78
13800;BME280;6971;50.028;9.258;2023-06-05T17:55:29;99360.88;;;23.96;34.55
13800;BME280;6971;50.028;9.258;2023-06-05T18:00:29;99362.44;;;23.73;33.05
13800;BME280;6971;50.028;9.258;2023-06-05T18:05:29;99375.41;;;23.62;36.11
13800;BME280;6971;50.028;9.258;2023-06-05T18:10:30;99371.38;;;23.41;37.20
13800;BME280;6971;50.028;9.258;2023-06-05T18:15:31;99379.03;;;22.94;39.13
13800;BME280;6971;50.028;9.258;2023-06-05T18:20:31;99374.63;;;22.85;40.12
13800;BME280;6971;50.028;9.258;2023-06-05T18:25:31;99368.50;;;22.58;41.45
13800;BME280;6971;50.028;9.258;2023-06-05T18:30:32;99371.78;;;22.43;38.58
13800;BME280;6971;50.028;9.258;2023-06-05T18:35:32;99378.09;;;22.25;41.78
13800;BME280;6971;50.028;9.258;2023-06-05T18:40:32;99374.47;;;21.82;44.01
13800;BME280;6971;50.028;9.258;2023-06-05T18:50:37;99381.13;;;21.15;46.59
13800;BME280;6971;50.028;9.258;2023-06-05T18:55:38;99385.50;;;20.69;49.09
13800;BME280;6971;50.028;9.258;2023-06-05T19:00:38;99395.22;;;20.42;49.00
13800;BME280;6971;50.028;9.258;2023-06-05T19:05:38;99398.06;;;20.31;51.06
13800;BME280;6971;50.028;9.258;2023-06-05T19:10:42;99393.78;;;20.10;51.66
13800;BME280;6971;50.028;9.258;2023-06-05T19:15:44;99392.41;;;19.86;53.11
13800;BME280;6971;50.028;9.258;2023-06-05T19:20:47;99394.00;;;19.69;52.82
13800;BME280;6971;50.028;9.258;2023-06-05T19:25:48;99390.06;;;19.34;54.94
13800;BME280;6971;50.028;9.258;2023-06-05T19:30:50;99402.94;;;18.99;55.74
13800;BME280;6971;50.028;9.258;2023-06-05T19:35:50;99402.47;;;18.74;56.20
13800;BME280;6971;50.028;9.258;2023-06-05T19:40:51;99406.22;;;18.61;57.95
13800;BME280;6971;50.028;9.258;2023-06-05T19:45:51;99408.34;;;18.26;59.12
13800;BME280;6971;50.028;9.258;2023-06-05T19:50:51;99416.31;;;18.17;59.63
13800;BME280;6971;50.028;9.258;2023-06-05T19:55:52;99424.69;;;18.12;59.43
13800;BME280;6971;50.028;9.258;2023-06-05T20:00:52;99426.88;;;18.07;59.37
13800;BME280;6971;50.028;9.258;2023-06-05T20:05:52;99431.84;;;18.11;58.67
13800;BME280;6971;50.028;9.258;2023-06-05T20:10:53;99443.66;;;18.19;59.29
13800;BME280;6971;50.028;9.258;2023-06-05T20:15:53;99447.28;;;18.39;57.32
13800;BME280;6971;50.028;9.258;2023-06-05T20:20:55;99463.84;;;18.11;60.09
13800;BME280;6971;50.028;9.258;2023-06-05T20:25:56;99472.47;;;18.04;59.58
13800;BME280;6971;50.028;9.258;2023-06-05T20:30:56;99479.31;;;17.96;58.02
13800;BME280;6971;50.028;9.258;2023-06-05T20:35:57;99493.22;;;18.00;58.02
13800;BME280;6971;50.028;9.258;2023-06-05T20:40:58;99489.94;;;17.75;60.57
13800;BME280;6971;50.028;9.258;2023-06-05T20:46:02;99493.97;;;17.91;58.66
13800;BME280;6971;50.028;9.258;2023-06-05T20:51:03;99496.28;;;17.63;60.34
13800;BME280;6971;50.028;9.258;2023-06-05T20:56:06;99494.28;;;17.55;61.86
13800;BME280;6971;50.028;9.258;2023-06-05T21:01:06;99501.13;;;17.25;63.40
13800;BME280;6971;50.028;9.258;2023-06-05T21:06:09;99504.03;;;16.99;65.67
13800;BME280;6971;50.028;9.258;2023-06-05T21:11:09;99505.00;;;16.75;66.05
13800;BME280;6971;50.028;9.258;2023-06-05T21:16:10;99513.59;;;16.55;66.68
13800;BME280;6971;50.028;9.258;2023-06-05T21:21:12;99514.81;;;16.51;67.07
13800;BME280;6971;50.028;9.258;2023-06-05T21:26:12;99510.19;;;16.30;68.82
13800;BME280;6971;50.028;9.258;2023-06-05T21:31:12;99514.59;;;16.07;69.92
13800;BME280;6971;50.028;9.258;2023-06-05T21:36:13;99512.28;;;16.02;69.55
13800;BME280;6971;50.028;9.258;2023-06-05T21:41:16;99512.41;;;16.01;69.69
13800;BME280;6971;50.028;9.258;2023-06-05T21:46:16;99512.91;;;15.57;71.71
13800;BME280;6971;50.028;9.258;2023-06-05T21:51:18;99518.72;;;15.38;73.72
13800;BME280;6971;50.028;9.258;2023-06-05T21:56:19;99520.66;;;15.36;74.20
13800;BME280;6971;50.028;9.258;2023-06-05T22:01:19;99517.72;;;15.27;75.09
13800;BME280;6971;50.028;9.258;2023-06-05T22:06:19;99523.69;;;15.05;76.72
13800;BME280;6971;50.028;9.258;2023-06-05T22:11:25;99532.22;;;14.97;78.33
13800;BME280;6971;50.028;9.258;2023-06-05T22:16:26;99527.88;;;14.96;79.47
13800;BME280;6971;50.028;9.258;2023-06-05T22:21:27;99533.50;;;14.92;80.00
13800;BME280;6971;50.028;9.258;2023-06-05T22:26:32;99532.97;;;14.73;83.46
13800;BME280;6971;50.028;9.258;2023-06-05T22:31:33;99535.19;;;14.67;84.28
13800;BME280;6971;50.028;9.258;2023-06-05T22:36:35;99529.69;;;14.57;85.45
13800;BME280;6971;50.028;9.258;2023-06-05T22:41:36;99519.19;;;14.42;87.49
13800;BME280;6971;50.028;9.258;2023-06-05T22:46:38;99519.59;;;14.36;88.08
13800;BME280;6971;50.028;9.258;2023-06-05T22:51:38;99529.34;;;14.22;90.17
13800;BME280;6971;50.028;9.258;2023-06-05T22:56:39;99533.03;;;14.20;90.92
13800;BME280;6971;50.028;9.258;2023-06-05T23:01:40;99528.34;;;13.98;93.15
13800;BME280;6971;50.028;9.258;2023-06-05T23:06:44;99533.97;;;14.06;93.21
13800;BME280;6971;50.028;9.258;2023-06-05T23:11:44;99531.38;;;13.91;95.14
13800;BME280;6971;50.028;9.258;2023-06-05T23:16:45;99530.09;;;13.84;96.38
13800;BME280;6971;50.028;9.258;2023-06-05T23:21:45;99518.81;;;13.67;98.85
13800;BME280;6971;50.028;9.258;2023-06-05T23:26:45;99525.28;;;13.63;99.67
13800;BME280;6971;50.028;9.258;2023-06-05T23:31:46;99522.09;;;13.58;99.96
13800;BME280;6971;50.028;9.258;2023-06-05T23:36:47;99527.28;;;13.45;100.00
13800;BME280;6971;50.028;9.258;2023-06-05T23:41:48;99526.09;;;13.36;100.00
13800;BME280;6971;50.028;9.258;2023-06-05T23:46:49;99524.41;;;13.21;100.00
13800;BME280;6971;50.028;9.258;2023-06-05T23:51:50;99518.19;;;13.07;100.00
13800;BME280;6971;50.028;9.258;2023-06-05T23:56:50;99519.72;;;12.97;100.00
